Time;durP1;ratioP1;P1;durP2;ratioP2;P2;SDS_P1;SDS_P2;PMS_P1;PMS_P2;Temp;Humidity;BMP_temperature;BMP_pressure;BME280_temperature;BME280_humidity;BME280_pressure;Samples;Min_cycle;Max_cycle;Signal;HPM_P1;HPM_P2
2021/03/10 00:00:01;;;;;;;0.52;0.40;;;10.70;99.90;;;;;;5010957;28;20061;-82
2021/03/10 00:02:27;;;;;;;1.83;0.50;;;10.70;99.90;;;;;;5027547;28;20029;-85
2021/03/10 00:04:52;;;;;;;4.10;0.70;;;10.80;99.90;;;;;;4995205;28;20091;-82
2021/03/10 00:07:18;;;;;;;2.72;0.65;;;10.80;99.90;;;;;;5011126;28;20034;-83
2021/03/10 00:09:44;;;;;;;0.77;0.40;;;10.80;99.90;;;;;;5011293;28;20095;-86
2021/03/10 00:12:10;;;;;;;2.28;0.68;;;10.80;99.90;;;;;;5010939;28;20477;-81
2021/03/10 00:14:35;;;;;;;1.92;0.50;;;10.90;99.90;;;;;;5027320;28;20025;-84
2021/03/10 00:17:01;;;;;;;1.27;0.70;;;10.90;99.90;;;;;;5011203;28;20127;-83
2021/03/10 00:19:27;;;;;;;1.65;0.60;;;10.90;99.90;;;;;;5028576;28;20026;-81
2021/03/10 00:21:53;;;;;;;1.83;0.80;;;10.90;99.90;;;;;;5029183;28;20101;-82
2021/03/10 00:24:18;;;;;;;1.25;0.77;;;10.90;99.90;;;;;;5027786;28;20053;-81
2021/03/10 00:26:44;;;;;;;2.75;0.70;;;10.90;99.90;;;;;;5027445;28;20385;-82
2021/03/10 00:29:10;;;;;;;1.85;0.60;;;10.90;99.90;;;;;;5028394;28;20105;-83
2021/03/10 00:31:36;;;;;;;1.15;0.55;;;10.80;99.90;;;;;;5010677;28;20140;-83
2021/03/10 00:34:03;;;;;;;0.98;0.50;;;10.80;99.90;;;;;;5028551;28;20455;-81
2021/03/10 00:36:28;;;;;;;2.28;0.60;;;10.80;99.90;;;;;;5027214;28;20025;-84
2021/03/10 00:38:54;;;;;;;0.98;0.55;;;10.80;99.90;;;;;;5027278;28;20160;-85
2021/03/10 00:41:20;;;;;;;1.80;0.70;;;10.80;99.90;;;;;;5011000;28;20030;-83
2021/03/10 00:43:46;;;;;;;0.88;0.60;;;10.80;99.90;;;;;;5011085;28;20040;-83
2021/03/10 00:46:11;;;;;;;1.00;0.63;;;10.80;99.90;;;;;;5028501;28;20118;-87
2021/03/10 00:48:37;;;;;;;1.05;0.57;;;10.80;99.90;;;;;;5010650;28;20110;-81
2021/03/10 00:51:03;;;;;;;5.43;0.45;;;10.80;99.90;;;;;;5027077;28;20064;-82
2021/03/10 00:53:29;;;;;;;0.95;0.80;;;10.80;99.90;;;;;;5010310;28;20466;-82
2021/03/10 00:55:54;;;;;;;1.42;0.80;;;10.80;99.90;;;;;;5027031;28;20551;-85
2021/03/10 00:58:20;;;;;;;2.85;0.70;;;10.80;99.90;;;;;;4994242;28;20036;-83
2021/03/10 01:00:46;;;;;;;1.40;0.57;;;10.80;99.90;;;;;;5027381;28;20030;-80
2021/03/10 01:03:12;;;;;;;1.48;0.70;;;10.80;99.90;;;;;;5010940;28;20477;-83
2021/03/10 01:05:38;;;;;;;1.77;0.68;;;10.80;99.90;;;;;;5027119;28;20037;-84
2021/03/10 01:08:03;;;;;;;3.17;0.82;;;10.80;99.90;;;;;;5010482;28;20029;-82
2021/03/10 01:10:29;;;;;;;1.85;0.95;;;10.80;99.90;;;;;;5026607;28;20056;-85
2021/03/10 01:12:55;;;;;;;4.85;0.90;;;10.80;99.90;;;;;;5010606;28;20083;-83
2021/03/10 01:15:21;;;;;;;5.30;1.15;;;10.80;99.90;;;;;;5011430;28;20385;-82
2021/03/10 01:17:47;;;;;;;5.65;0.95;;;10.80;99.90;;;;;;5027827;28;20025;-82
2021/03/10 01:20:18;;;;;;;7.75;1.35;;;10.60;99.90;;;;;;5011319;28;20030;-82
2021/03/10 01:22:45;;;;;;;7.25;1.33;;;10.50;99.90;;;;;;5029071;28;20025;-83
2021/03/10 01:25:12;;;;;;;8.57;1.65;;;10.40;99.90;;;;;;5029394;28;20032;-85
2021/03/10 01:27:38;;;;;;;12.15;1.88;;;10.30;99.90;;;;;;5032394;28;20053;-84
2021/03/10 01:30:06;;;;;;;12.70;2.40;;;10.30;99.90;;;;;;5031690;28;20042;-84
2021/03/10 01:32:32;;;;;;;7.32;1.08;;;10.20;99.90;;;;;;5032891;28;20030;-85
2021/03/10 01:34:58;;;;;;;8.88;1.92;;;10.20;99.90;;;;;;5015201;28;20032;-82
2021/03/10 01:37:23;;;;;;;13.07;1.63;;;10.10;99.90;;;;;;5031330;28;20032;-85
2021/03/10 01:39:49;;;;;;;6.18;1.25;;;10.10;99.90;;;;;;5031262;28;20116;-82
2021/03/10 01:42:15;;;;;;;11.57;2.53;;;10.10;99.90;;;;;;5031322;28;20468;-81
2021/03/10 01:44:41;;;;;;;14.70;2.10;;;10.00;99.90;;;;;;5031512;28;20089;-85
2021/03/10 01:47:08;;;;;;;18.10;2.17;;;10.00;99.90;;;;;;5014982;28;20025;-86
2021/03/10 01:49:35;;;;;;;12.65;2.90;;;10.00;99.90;;;;;;5031142;28;20025;-84
2021/03/10 01:52:01;;;;;;;13.70;2.67;;;10.00;99.90;;;;;;5015455;28;20044;-84
2021/03/10 01:54:27;;;;;;;11.07;2.08;;;10.00;99.90;;;;;;5014814;28;20033;-84
2021/03/10 01:56:53;;;;;;;11.82;2.05;;;10.00;99.90;;;;;;5031073;28;20033;-83
2021/03/10 01:59:19;;;;;;;18.98;2.67;;;10.00;99.90;;;;;;5032292;28;20014;-82
2021/03/10 02:01:45;;;;;;;13.48;2.00;;;10.00;99.90;;;;;;5032166;28;20032;-82
2021/03/10 02:04:11;;;;;;;14.35;2.40;;;10.00;99.90;;;;;;4998582;28;20401;-80
2021/03/10 02:06:55;;;;;;;11.40;2.35;;;10.00;99.90;;;;;;5032673;28;20076;-83
2021/03/10 02:09:43;;;;;;;21.73;2.92;;;10.00;99.90;;;;;;5031140;28;20025;-85
2021/03/10 02:12:35;;;;;;;21.67;3.53;;;10.00;99.90;;;;;;5030802;28;20040;-84
2021/03/10 02:15:23;;;;;;;23.38;2.78;;;10.00;99.90;;;;;;5030414;28;20033;-85
2021/03/10 02:17:56;;;;;;;17.57;2.90;;;10.00;99.90;;;;;;5030530;28;20025;-84
2021/03/10 02:20:42;;;;;;;12.55;2.25;;;10.00;99.90;;;;;;5031455;28;20021;-81
2021/03/10 02:23:50;;;;;;;11.15;2.03;;;10.00;99.90;;;;;;5030141;28;20025;-83
2021/03/10 02:26:32;;;;;;;11.85;2.22;;;10.00;99.90;;;;;;5024679;28;20496;-82
2021/03/10 02:29:03;;;;;;;16.13;2.70;;;10.00;99.90;;;;;;5030150;28;20122;-84
2021/03/10 02:31:33;;;;;;;16.45;3.22;;;9.90;99.90;;;;;;5030393;28;20073;-82
2021/03/10 02:34:01;;;;;;;18.33;3.17;;;9.90;99.90;;;;;;5030228;28;20415;-84
2021/03/10 02:36:27;;;;;;;20.60;2.38;;;9.90;99.90;;;;;;5031047;28;20022;-83
2021/03/10 02:38:54;;;;;;;11.82;2.25;;;9.90;99.90;;;;;;5030476;28;20028;-83
2021/03/10 02:41:21;;;;;;;20.95;2.67;;;9.90;99.90;;;;;;5030229;28;20032;-84
2021/03/10 02:43:49;;;;;;;22.20;3.10;;;9.90;99.90;;;;;;5030203;28;20025;-83
2021/03/10 02:46:16;;;;;;;16.75;2.63;;;9.90;99.90;;;;;;5029920;28;20393;-84
2021/03/10 02:48:46;;;;;;;14.60;2.60;;;10.00;99.90;;;;;;5030478;28;20053;-84
2021/03/10 02:51:16;;;;;;;13.93;2.50;;;10.00;99.90;;;;;;5031357;28;20041;-80
2021/03/10 02:53:43;;;;;;;15.65;2.88;;;10.00;99.90;;;;;;5029181;28;20062;-84
2021/03/10 02:56:12;;;;;;;12.68;2.03;;;10.00;99.90;;;;;;5012992;28;20029;-82
2021/03/10 02:58:39;;;;;;;15.45;2.28;;;10.00;99.90;;;;;;5030399;28;20423;-80
2021/03/10 03:01:05;;;;;;;19.00;3.00;;;10.00;99.90;;;;;;5029049;28;20029;-83
2021/03/10 03:03:30;;;;;;;16.60;2.20;;;10.00;99.90;;;;;;5012914;28;20033;-85
2021/03/10 03:05:56;;;;;;;12.18;2.67;;;10.00;99.90;;;;;;5012618;28;20034;-82
2021/03/10 03:08:22;;;;;;;16.38;2.83;;;10.00;99.90;;;;;;5012165;28;20132;-81
2021/03/10 03:10:48;;;;;;;14.23;2.45;;;10.00;99.90;;;;;;5029455;28;20034;-83
2021/03/10 03:13:15;;;;;;;9.98;2.10;;;9.90;99.90;;;;;;5012367;28;20530;-82
2021/03/10 03:15:53;;;;;;;8.77;1.80;;;10.00;99.90;;;;;;5029826;28;20032;-83
2021/03/10 03:18:21;;;;;;;16.42;1.98;;;10.00;99.90;;;;;;5028447;28;20022;-85
2021/03/10 03:20:50;;;;;;;15.68;2.47;;;10.00;99.90;;;;;;5028387;28;20025;-82
2021/03/10 03:23:17;;;;;;;14.88;1.45;;;10.00;99.90;;;;;;5011486;28;20041;-84
2021/03/10 03:25:45;;;;;;;10.88;2.88;;;10.00;99.90;;;;;;5027696;28;20496;-82
2021/03/10 03:28:14;;;;;;;10.73;2.33;;;10.00;99.90;;;;;;5027780;28;20050;-82
2021/03/10 03:30:40;;;;;;;;;;;10.00;99.90;;;;;;5029908;28;20109;-82
2021/03/10 03:33:27;;;;;;;12.55;1.25;;;10.00;99.90;;;;;;5011452;28;19975;-85
2021/03/10 03:35:56;;;;;;;9.93;2.47;;;9.90;99.90;;;;;;5028854;28;20036;-85
2021/03/10 03:38:24;;;;;;;;;;;9.90;99.90;;;;;;5028961;28;20045;-85
2021/03/10 03:40:51;;;;;;;9.48;1.45;;;9.90;99.90;;;;;;5029242;28;19912;-84
2021/03/10 03:43:22;;;;;;;12.20;1.83;;;9.90;99.90;;;;;;4995923;28;20036;-83
2021/03/10 03:45:48;;;;;;;10.95;2.40;;;9.90;99.90;;;;;;5030349;28;20025;-82
2021/03/10 03:48:13;;;;;;;11.77;1.52;;;9.90;99.90;;;;;;5011175;28;20472;-85
2021/03/10 03:50:41;;;;;;;10.07;1.98;;;9.90;99.90;;;;;;4994649;28;20034;-83
2021/03/10 03:53:08;;;;;;;11.90;2.03;;;9.90;99.90;;;;;;5027943;28;20042;-84
2021/03/10 03:55:35;;;;;;;12.25;1.98;;;9.90;99.90;;;;;;5027519;28;20021;-82
2021/03/10 03:58:01;;;;;;;11.27;2.05;;;9.90;99.90;;;;;;5029029;28;20040;-83
2021/03/10 04:00:27;;;;;;;22.15;3.33;;;9.90;99.90;;;;;;5028011;28;20029;-86
2021/03/10 04:02:53;;;;;;;19.75;2.28;;;9.90;99.90;;;;;;5012111;28;20044;-85
2021/03/10 04:05:20;;;;;;;20.90;2.72;;;9.90;99.90;;;;;;5028435;28;20105;-82
2021/03/10 04:07:54;;;;;;;19.88;2.55;;;9.90;99.90;;;;;;5011441;28;20036;-85
2021/03/10 04:10:30;;;;;;;16.42;2.35;;;9.90;99.90;;;;;;5011027;28;20494;-86
2021/03/10 04:12:57;;;;;;;15.90;2.00;;;9.90;99.90;;;;;;5027825;28;20061;-85
2021/03/10 04:15:26;;;;;;;18.02;2.47;;;9.90;99.90;;;;;;5011196;28;20025;-84
2021/03/10 04:17:52;;;;;;;22.05;2.47;;;9.90;99.90;;;;;;5010809;28;20037;-83
2021/03/10 04:20:21;;;;;;;12.35;2.83;;;10.00;99.90;;;;;;5028842;28;20092;-83
2021/03/10 04:22:47;;;;;;;11.95;2.00;;;9.90;99.90;;;;;;5028331;28;20445;-85
2021/03/10 04:25:13;;;;;;;19.70;2.58;;;10.00;99.90;;;;;;5028855;28;20037;-83
2021/03/10 04:27:40;;;;;;;14.48;2.78;;;10.00;99.90;;;;;;5027620;28;20731;-85
2021/03/10 04:30:08;;;;;;;22.35;2.70;;;9.90;99.90;;;;;;5011107;28;20077;-84
2021/03/10 04:32:33;;;;;;;15.00;2.10;;;9.90;99.90;;;;;;5011162;28;20029;-83
2021/03/10 04:34:59;;;;;;;13.80;2.13;;;9.90;99.90;;;;;;5027955;28;20531;-83
2021/03/10 04:37:25;;;;;;;15.00;1.90;;;9.90;99.90;;;;;;5027724;28;20034;-87
2021/03/10 04:39:51;;;;;;;14.75;2.22;;;9.90;99.90;;;;;;5028342;28;20021;-84
2021/03/10 04:42:16;;;;;;;19.80;2.90;;;9.90;99.90;;;;;;5029339;28;20057;-84
2021/03/10 04:44:42;;;;;;;12.10;2.03;;;9.90;99.90;;;;;;5011200;28;20120;-84
2021/03/10 04:47:08;;;;;;;19.33;2.97;;;9.90;99.90;;;;;;5027518;28;20029;-86
2021/03/10 04:49:33;;;;;;;20.00;2.90;;;9.90;99.90;;;;;;5027739;28;20524;-84
2021/03/10 04:51:59;;;;;;;12.43;1.90;;;9.90;99.90;;;;;;5010966;28;20424;-84
2021/03/10 04:54:25;;;;;;;15.70;2.17;;;9.80;99.90;;;;;;5026951;28;20049;-83
2021/03/10 04:56:51;;;;;;;13.10;2.50;;;9.90;99.90;;;;;;5010986;28;20030;-80
2021/03/10 04:59:16;;;;;;;15.68;2.40;;;9.90;99.90;;;;;;5027297;28;20091;-83
2021/03/10 05:01:42;;;;;;;17.27;2.90;;;9.90;99.90;;;;;;5029464;28;20018;-84
2021/03/10 05:04:08;;;;;;;14.93;2.55;;;9.90;99.90;;;;;;5031611;28;20499;-84
2021/03/10 05:06:34;;;;;;;16.75;2.28;;;9.90;99.90;;;;;;5031829;28;20495;-83
2021/03/10 05:08:59;;;;;;;22.23;2.85;;;9.80;99.90;;;;;;5032416;28;20031;-85
2021/03/10 05:11:25;;;;;;;15.18;2.50;;;9.90;99.90;;;;;;4998066;28;20105;-81
2021/03/10 05:13:51;;;;;;;21.30;3.35;;;9.90;99.90;;;;;;5014164;28;20026;-83
2021/03/10 05:16:17;;;;;;;21.58;4.00;;;9.90;99.90;;;;;;5013964;28;20091;-83
2021/03/10 05:18:43;;;;;;;18.08;2.72;;;9.80;99.90;;;;;;5030280;28;20029;-85
2021/03/10 05:21:10;;;;;;;17.23;2.50;;;9.90;99.90;;;;;;5032305;28;20106;-83
2021/03/10 05:23:41;;;;;;;17.83;3.00;;;9.90;99.90;;;;;;5030500;28;20531;-83
2021/03/10 05:26:07;;;;;;;14.43;2.78;;;9.90;99.90;;;;;;5031245;28;20050;-83
2021/03/10 05:28:32;;;;;;;13.05;2.25;;;9.80;99.90;;;;;;5030779;28;20123;-84
2021/03/10 05:30:58;;;;;;;17.00;3.25;;;9.90;99.90;;;;;;5031305;28;20062;-84
2021/03/10 05:33:24;;;;;;;18.80;2.15;;;9.90;99.90;;;;;;5014512;28;20387;-83
2021/03/10 05:35:49;;;;;;;20.38;3.38;;;9.90;99.90;;;;;;5014844;28;20026;-83
2021/03/10 05:38:15;;;;;;;13.70;2.05;;;9.90;99.90;;;;;;5030958;28;20079;-81
2021/03/10 05:40:41;;;;;;;18.63;2.83;;;9.90;99.90;;;;;;5031090;28;20084;-83
2021/03/10 05:43:06;;;;;;;21.10;3.33;;;9.90;99.90;;;;;;4997332;28;20079;-83
2021/03/10 05:45:32;;;;;;;15.18;2.20;;;9.80;99.90;;;;;;5013697;28;20072;-83
2021/03/10 05:47:58;;;;;;;17.50;2.95;;;9.80;99.90;;;;;;5029698;28;20037;-85
2021/03/10 05:50:23;;;;;;;22.17;2.50;;;9.80;99.90;;;;;;4997867;28;20029;-82
2021/03/10 05:52:49;;;;;;;19.15;2.45;;;9.80;99.90;;;;;;5014145;28;20034;-82
2021/03/10 05:55:20;;;;;;;15.73;2.55;;;9.80;99.90;;;;;;5030491;28;20034;-82
2021/03/10 05:57:46;;;;;;;13.88;2.30;;;9.80;99.90;;;;;;5031263;28;20094;-81
2021/03/10 06:00:14;;;;;;;18.95;2.80;;;9.80;99.90;;;;;;5030622;28;20539;-83
2021/03/10 06:02:40;;;;;;;16.85;2.50;;;9.80;99.90;;;;;;5013671;28;20029;-83
2021/03/10 06:05:17;;;;;;;19.77;3.22;;;9.90;99.90;;;;;;5031892;28;20484;-84
2021/03/10 06:07:42;;;;;;;22.17;3.00;;;9.80;99.90;;;;;;5030262;28;20116;-83
2021/03/10 06:10:08;;;;;;;12.20;3.15;;;9.90;99.90;;;;;;5031797;28;20591;-84
2021/03/10 06:12:45;;;;;;;19.27;2.60;;;9.80;99.90;;;;;;5013179;28;20362;-83
2021/03/10 06:15:12;;;;;;;21.65;2.45;;;9.90;99.90;;;;;;5031363;28;20481;-85
2021/03/10 06:17:46;;;;;;;13.13;1.83;;;9.90;99.90;;;;;;5013258;28;20079;-82
2021/03/10 06:20:31;;;;;;;19.27;2.08;;;9.90;99.90;;;;;;5029902;28;20018;-82
2021/03/10 06:22:57;;;;;;;23.30;3.20;;;9.80;99.90;;;;;;5029618;28;20036;-84
2021/03/10 06:25:24;;;;;;;13.57;2.65;;;9.80;99.90;;;;;;5029343;28;20026;-85
2021/03/10 06:27:56;;;;;;;10.95;2.20;;;9.80;99.90;;;;;;5012348;28;20053;-83
2021/03/10 06:30:43;;;;;;;21.02;2.47;;;9.80;99.90;;;;;;5028987;28;20524;-82
2021/03/10 06:33:09;;;;;;;32.10;3.35;;;9.80;99.90;;;;;;5029075;28;20517;-83
2021/03/10 06:35:36;;;;;;;19.20;2.42;;;9.80;99.90;;;;;;5029150;28;20029;-84
2021/03/10 06:38:14;;;;;;;18.25;2.80;;;9.80;99.90;;;;;;5012516;28;20037;-84
2021/03/10 06:40:51;;;;;;;16.08;2.03;;;9.70;99.90;;;;;;5028629;28;20487;-84
2021/03/10 06:43:17;;;;;;;25.33;3.45;;;9.70;99.90;;;;;;5029851;28;20465;-84
2021/03/10 06:45:43;;;;;;;26.63;2.63;;;9.70;99.90;;;;;;5029508;28;20025;-83
2021/03/10 06:48:22;;;;;;;22.20;3.50;;;9.70;99.90;;;;;;5028806;28;20040;-84
2021/03/10 06:50:48;;;;;;;13.15;2.65;;;9.70;99.90;;;;;;5011895;28;20484;-84
2021/03/10 06:53:15;;;;;;;19.60;2.95;;;9.70;99.90;;;;;;5011938;28;20037;-83
2021/03/10 06:55:43;;;;;;;27.17;4.00;;;9.60;99.90;;;;;;5028343;28;20033;-80
2021/03/10 06:58:09;;;;;;;25.80;2.42;;;9.60;99.90;;;;;;5028135;28;20503;-85
2021/03/10 07:00:36;;;;;;;22.98;3.65;;;9.60;99.90;;;;;;5011653;28;20034;-80
2021/03/10 07:03:03;;;;;;;24.40;3.92;;;9.60;99.90;;;;;;5028143;28;20029;-82
2021/03/10 07:05:30;;;;;;;22.58;2.63;;;9.60;99.90;;;;;;5028185;28;20029;-82
2021/03/10 07:07:57;;;;;;;29.65;3.38;;;9.60;99.90;;;;;;4995643;28;20033;-82
2021/03/10 07:10:26;;;;;;;20.02;2.63;;;9.60;99.90;;;;;;5028258;28;20041;-85
2021/03/10 07:12:55;;;;;;;23.70;3.00;;;9.60;99.90;;;;;;5028362;28;20432;-82
2021/03/10 07:15:21;;;;;;;;;;;9.60;99.90;;;;;;5028905;28;20403;-82
2021/03/10 07:17:49;;;;;;;27.08;3.30;;;9.70;99.90;;;;;;5028437;28;20003;-82
2021/03/10 07:20:16;;;;;;;22.55;3.20;;;9.70;99.90;;;;;;5012198;28;20075;-82
2021/03/10 07:23:06;;;;;;;19.35;2.60;;;9.70;99.90;;;;;;5012026;28;20033;-82
2021/03/10 07:25:40;;;;;;;13.15;2.90;;;9.60;99.90;;;;;;5029557;28;20025;-84
2021/03/10 07:28:25;;;;;;;21.30;3.35;;;9.60;99.90;;;;;;5028886;28;20089;-82
2021/03/10 07:30:50;;;;;;;22.92;5.15;;;9.60;99.90;;;;;;5028691;28;20049;-81
2021/03/10 07:33:21;;;;;;;29.23;4.28;;;9.60;99.90;;;;;;5012480;28;20468;-82
2021/03/10 07:35:56;;;;;;;17.48;2.60;;;9.70;99.90;;;;;;5028748;28;20033;-83
2021/03/10 07:38:24;;;;;;;17.48;3.35;;;9.70;99.90;;;;;;5029541;28;20025;-84
2021/03/10 07:40:52;;;;;;;21.08;2.55;;;9.70;99.90;;;;;;5028569;28;20017;-83
2021/03/10 07:43:18;;;;;;;15.05;2.33;;;9.70;99.90;;;;;;5011855;28;20025;-82
2021/03/10 07:45:44;;;;;;;16.90;3.03;;;9.70;99.90;;;;;;5027776;28;20026;-84
2021/03/10 07:48:11;;;;;;;19.63;3.65;;;9.80;99.90;;;;;;5011039;28;20083;-80
2021/03/10 07:50:42;;;;;;;23.67;3.00;;;9.80;99.90;;;;;;4994828;28;20033;-83
2021/03/10 07:53:08;;;;;;;26.83;3.10;;;9.90;99.90;;;;;;5027361;28;20040;-82
2021/03/10 07:55:48;;;;;;;23.33;3.35;;;9.90;99.90;;;;;;5027100;28;20119;-85
2021/03/10 07:58:30;;;;;;;23.73;3.00;;;9.90;99.90;;;;;;5027006;28;20025;-85
2021/03/10 08:00:57;;;;;;;23.00;3.80;;;10.00;99.90;;;;;;5027369;28;20022;-84
2021/03/10 08:03:30;;;;;;;24.90;2.80;;;10.00;99.90;;;;;;5027189;28;20091;-84
2021/03/10 08:06:06;;;;;;;17.42;3.10;;;10.10;99.90;;;;;;5027254;28;20098;-81
2021/03/10 08:08:42;;;;;;;22.67;3.33;;;10.10;99.90;;;;;;5010691;28;20030;-81
2021/03/10 08:11:18;;;;;;;18.25;2.63;;;10.10;99.90;;;;;;5027707;28;20029;-84
2021/03/10 08:13:58;;;;;;;19.17;2.92;;;10.10;99.90;;;;;;5028079;28;20033;-82
2021/03/10 08:16:25;;;;;;;25.67;4.32;;;10.20;99.90;;;;;;5027306;28;20440;-82
2021/03/10 08:18:51;;;;;;;17.55;3.63;;;10.30;99.90;;;;;;5027471;28;20025;-85
2021/03/10 08:21:18;;;;;;;17.02;3.30;;;10.40;99.90;;;;;;5028360;28;20026;-83
2021/03/10 08:23:44;;;;;;;17.27;2.42;;;10.50;99.90;;;;;;5027658;28;20385;-81
2021/03/10 08:26:11;;;;;;;16.85;2.47;;;10.50;99.90;;;;;;5027934;28;20040;-81
2021/03/10 08:28:39;;;;;;;17.25;3.63;;;10.60;99.90;;;;;;5026527;28;20036;-83
2021/03/10 08:31:11;;;;;;;24.83;3.10;;;10.70;99.90;;;;;;5026494;28;20060;-81
2021/03/10 08:33:47;;;;;;;14.23;2.78;;;10.70;99.90;;;;;;5026636;28;20045;-81
2021/03/10 08:36:14;;;;;;;19.50;3.28;;;10.80;99.90;;;;;;5015418;28;20120;-80
2021/03/10 08:38:40;;;;;;;24.33;4.20;;;10.80;99.90;;;;;;5034671;28;20033;-81
2021/03/10 08:41:08;;;;;;;20.23;3.17;;;10.80;99.90;;;;;;5034483;28;20028;-83
2021/03/10 08:43:34;;;;;;;14.38;2.67;;;10.90;99.90;;;;;;5033071;28;20086;-81
2021/03/10 08:46:00;;;;;;;20.58;3.13;;;11.00;99.90;;;;;;5033215;28;20273;-84
2021/03/10 08:48:34;;;;;;;19.83;3.17;;;11.10;99.90;;;;;;5016684;28;20084;-81
2021/03/10 08:51:04;;;;;;;16.80;2.58;;;11.20;99.90;;;;;;5034427;28;20048;-81
2021/03/10 08:53:30;;;;;;;20.92;3.05;;;11.30;99.90;;;;;;5032889;28;20087;-82
2021/03/10 08:56:09;;;;;;;13.65;2.10;;;11.40;99.90;;;;;;5032998;28;20025;-82
2021/03/10 08:58:35;;;;;;;16.13;2.53;;;11.50;99.90;;;;;;5033527;28;20025;-82
2021/03/10 09:01:00;;;;;;;13.65;2.80;;;11.50;99.90;;;;;;5034285;28;20093;-81
2021/03/10 09:03:27;;;;;;;18.17;2.88;;;11.50;99.90;;;;;;5015969;28;20087;-82
2021/03/10 09:06:01;;;;;;;15.90;2.83;;;11.40;99.90;;;;;;5032611;28;20035;-82
2021/03/10 09:08:27;;;;;;;22.63;3.63;;;11.30;99.90;;;;;;5033956;28;20380;-81
2021/03/10 09:10:55;;;;;;;14.00;2.72;;;11.30;99.90;;;;;;5016198;28;20458;-80
2021/03/10 09:13:21;;;;;;;15.63;2.72;;;11.30;99.90;;;;;;5033063;28;20456;-82
2021/03/10 09:15:48;;;;;;;10.30;2.50;;;11.30;99.90;;;;;;5032948;28;20037;-82
2021/03/10 09:18:14;;;;;;;16.65;3.38;;;11.30;99.90;;;;;;5000464;28;20101;-79
2021/03/10 09:20:42;;;;;;;13.82;2.38;;;11.30;99.90;;;;;;5033314;28;20456;-80
2021/03/10 09:23:09;;;;;;;13.13;2.30;;;11.30;99.90;;;;;;5034224;28;20048;-81
2021/03/10 09:25:40;;;;;;;14.65;2.50;;;11.40;99.90;;;;;;5033133;28;20033;-81
2021/03/10 09:28:15;;;;;;;14.85;2.50;;;11.50;99.90;;;;;;5034868;28;20032;-83
2021/03/10 09:30:43;;;;;;;15.88;2.92;;;11.50;99.90;;;;;;5033382;28;20575;-82
2021/03/10 09:33:20;;;;;;;19.98;2.22;;;11.60;99.90;;;;;;5034268;28;20387;-80
2021/03/10 09:35:55;;;;;;;17.25;3.25;;;11.60;99.90;;;;;;5016827;28;20091;-79
2021/03/10 09:38:21;;;;;;;22.45;3.33;;;11.60;99.90;;;;;;5033426;28;20032;-82
2021/03/10 09:40:53;;;;;;;14.73;2.88;;;11.60;99.90;;;;;;5017100;28;20029;-80
2021/03/10 09:43:21;;;;;;;7.45;2.08;;;11.60;99.90;;;;;;5033079;28;20089;-82
2021/03/10 09:45:48;;;;;;;12.48;2.20;;;11.60;99.90;;;;;;5016430;28;20033;-83
2021/03/10 09:48:26;;;;;;;10.48;2.38;;;11.50;99.90;;;;;;5012571;28;20033;-82
2021/03/10 09:51:00;;;;;;;10.93;2.15;;;11.50;99.90;;;;;;5029444;28;20037;-83
2021/03/10 09:53:26;;;;;;;15.30;2.15;;;11.60;99.90;;;;;;5029131;28;20040;-81
2021/03/10 09:56:09;;;;;;;11.32;2.25;;;11.50;99.90;;;;;;5012741;28;20025;-82
2021/03/10 09:58:55;;;;;;;13.52;1.83;;;11.30;99.90;;;;;;5030489;28;20026;-84
2021/03/10 10:01:29;;;;;;;6.45;1.83;;;11.20;99.90;;;;;;5029083;28;20044;-81
2021/03/10 10:03:56;;;;;;;9.65;2.03;;;11.20;99.90;;;;;;5013430;28;20041;-81
2021/03/10 10:06:22;;;;;;;8.15;1.52;;;11.10;99.90;;;;;;5029278;28;20041;-83
2021/03/10 10:08:48;;;;;;;7.75;1.63;;;11.10;99.90;;;;;;5013491;28;20033;-83
2021/03/10 10:11:16;;;;;;;4.45;1.20;;;11.00;99.90;;;;;;5030952;28;20389;-83
2021/03/10 10:13:47;;;;;;;5.10;1.42;;;10.90;99.90;;;;;;5029030;28;20093;-83
2021/03/10 10:16:14;;;;;;;8.38;2.05;;;10.90;99.90;;;;;;5029365;28;20021;-80
2021/03/10 10:18:40;;;;;;;2.72;0.90;;;11.00;99.90;;;;;;5012781;28;20022;-82
2021/03/10 10:21:06;;;;;;;7.13;2.67;;;11.00;99.90;;;;;;5012622;28;20496;-83
2021/03/10 10:23:32;;;;;;;4.85;1.88;;;11.00;99.90;;;;;;5028825;28;20392;-82
2021/03/10 10:25:58;;;;;;;8.50;2.85;;;11.00;99.90;;;;;;5029238;28;20030;-84
2021/03/10 10:28:24;;;;;;;9.68;2.00;;;10.90;99.90;;;;;;5028939;28;20503;-84
2021/03/10 10:30:51;;;;;;;9.38;1.85;;;10.90;99.90;;;;;;5028909;28;20377;-83
2021/03/10 10:33:17;;;;;;;6.75;2.03;;;10.90;99.90;;;;;;5029902;28;20487;-84
2021/03/10 10:35:42;;;;;;;3.35;0.90;;;10.90;99.90;;;;;;5028969;28;20037;-82
2021/03/10 10:38:08;;;;;;;3.53;0.98;;;10.90;99.90;;;;;;5012294;28;20128;-84
2021/03/10 10:40:35;;;;;;;5.40;1.15;;;10.80;99.90;;;;;;4995939;28;20025;-83
2021/03/10 10:43:01;;;;;;;3.40;1.00;;;10.90;99.90;;;;;;5030491;28;20021;-86
2021/03/10 10:45:27;;;;;;;3.42;1.00;;;10.90;99.90;;;;;;5030162;28;20426;-84
2021/03/10 10:47:53;;;;;;;2.75;1.08;;;11.00;99.90;;;;;;5011905;28;20476;-83
2021/03/10 10:50:18;;;;;;;3.67;1.08;;;11.00;99.90;;;;;;5012615;28;20044;-84
2021/03/10 10:52:45;;;;;;;3.92;0.88;;;11.00;99.90;;;;;;5012332;28;20041;-83
2021/03/10 10:55:14;;;;;;;3.03;0.90;;;11.10;99.90;;;;;;4995647;28;20025;-86
2021/03/10 10:57:40;;;;;;;3.28;0.88;;;11.20;99.90;;;;;;5028039;28;20613;-82
2021/03/10 11:00:11;;;;;;;3.40;1.20;;;11.20;99.90;;;;;;5010987;28;20037;-84
2021/03/10 11:02:37;;;;;;;3.78;1.10;;;11.30;99.90;;;;;;5029220;28;20032;-84
2021/03/10 11:05:05;;;;;;;1.45;0.82;;;11.40;99.90;;;;;;5028751;28;20037;-84
2021/03/10 11:07:30;;;;;;;2.85;0.82;;;11.40;99.90;;;;;;5028419;28;20384;-84
2021/03/10 11:09:56;;;;;;;2.90;0.70;;;11.50;99.90;;;;;;5011025;28;20100;-83
2021/03/10 11:12:22;;;;;;;5.82;1.23;;;11.50;99.90;;;;;;4995012;28;20026;-83
2021/03/10 11:14:47;;;;;;;1.40;0.68;;;11.60;99.90;;;;;;4995567;28;20122;-84
2021/03/10 11:17:13;;;;;;;3.70;0.93;;;11.60;99.90;;;;;;5027660;28;20049;-82
2021/03/10 11:19:39;;;;;;;2.88;0.80;;;11.60;99.90;;;;;;4995671;28;20380;-82
2021/03/10 11:22:06;;;;;;;2.95;0.85;;;11.60;99.90;;;;;;5028380;28;20106;-85
2021/03/10 11:24:33;;;;;;;2.33;0.73;;;11.60;99.90;;;;;;5012076;28;20038;-83
2021/03/10 11:26:59;;;;;;;2.30;0.70;;;11.60;99.90;;;;;;5028423;28;20049;-86
2021/03/10 11:29:25;;;;;;;2.60;0.85;;;11.60;99.90;;;;;;5028516;28;20029;-84
2021/03/10 11:31:51;;;;;;;2.88;0.80;;;11.70;99.90;;;;;;5027585;28;20040;-86
2021/03/10 11:34:16;;;;;;;2.03;0.80;;;11.70;99.90;;;;;;5011058;28;20104;-84
2021/03/10 11:36:42;;;;;;;2.83;0.82;;;11.70;99.90;;;;;;5027219;28;20499;-85
2021/03/10 11:39:08;;;;;;;3.78;0.85;;;11.70;99.90;;;;;;4994936;28;20397;-82
2021/03/10 11:41:34;;;;;;;1.50;0.60;;;11.80;99.90;;;;;;5027892;28;20018;-82
2021/03/10 11:44:02;;;;;;;1.67;0.60;;;11.80;99.90;;;;;;5010993;28;20205;-84
2021/03/10 11:46:28;;;;;;;0.80;0.63;;;11.80;99.90;;;;;;5027176;28;20486;-84
2021/03/10 11:48:53;;;;;;;1.60;0.88;;;11.80;99.90;;;;;;5027760;28;20115;-83
2021/03/10 11:51:19;;;;;;;2.85;0.90;;;11.80;99.90;;;;;;5027189;28;20022;-82
2021/03/10 11:53:45;;;;;;;2.53;0.80;;;11.90;99.90;;;;;;5028388;28;20646;-82
2021/03/10 11:56:10;;;;;;;1.05;0.60;;;11.90;99.90;;;;;;5027028;28;20228;-85
2021/03/10 11:58:36;;;;;;;2.35;0.50;;;11.90;99.90;;;;;;4994278;28;20590;-83
2021/03/10 12:01:02;;;;;;;2.20;0.40;;;11.90;99.90;;;;;;5027477;28;20060;-84
2021/03/10 12:03:28;;;;;;;0.75;0.30;;;12.00;99.90;;;;;;5027023;28;20026;-81
2021/03/10 12:05:54;;;;;;;1.20;0.40;;;11.90;99.90;;;;;;5026953;28;20051;-81
2021/03/10 12:08:19;;;;;;;1.55;0.70;;;11.90;99.90;;;;;;5010708;28;20061;-83
2021/03/10 12:10:45;;;;;;;3.13;1.27;;;11.90;99.90;;;;;;4994003;28;20041;-83
2021/03/10 12:13:11;;;;;;;1.45;0.60;;;11.90;99.90;;;;;;5026743;28;20049;-83
2021/03/10 12:15:38;;;;;;;0.90;0.50;;;11.90;99.90;;;;;;5028457;28;20108;-83
2021/03/10 12:18:04;;;;;;;1.83;0.50;;;11.90;99.90;;;;;;5027195;28;20098;-83
2021/03/10 12:20:30;;;;;;;3.25;0.38;;;11.90;99.90;;;;;;5027251;28;20121;-82
2021/03/10 12:22:56;;;;;;;2.10;0.40;;;11.90;99.90;;;;;;5028658;28;20105;-83
2021/03/10 12:25:22;;;;;;;0.75;0.50;;;11.90;99.90;;;;;;5027600;28;20338;-85
2021/03/10 12:27:47;;;;;;;2.42;0.60;;;11.90;99.90;;;;;;5027035;28;20035;-83
2021/03/10 12:30:15;;;;;;;1.00;0.57;;;12.00;99.90;;;;;;5026564;28;20053;-84
2021/03/10 12:32:40;;;;;;;1.42;0.70;;;12.00;99.90;;;;;;5027005;28;20431;-83
2021/03/10 12:35:07;;;;;;;2.33;0.77;;;12.00;99.90;;;;;;5027470;28;20026;-81
2021/03/10 12:37:32;;;;;;;0.50;0.40;;;12.00;99.90;;;;;;5027242;28;20404;-82
2021/03/10 12:39:59;;;;;;;1.95;0.52;;;12.00;99.90;;;;;;5013240;28;20025;-82
2021/03/10 12:42:25;;;;;;;1.33;0.50;;;12.00;99.90;;;;;;5027303;28;20037;-84
2021/03/10 12:44:51;;;;;;;4.13;1.10;;;12.00;99.90;;;;;;5027144;28;20053;-82
2021/03/10 12:47:17;;;;;;;0.85;0.43;;;12.00;99.90;;;;;;5010653;28;20030;-81
2021/03/10 12:49:43;;;;;;;1.33;0.60;;;12.00;99.90;;;;;;5010425;28;20229;-81